Glennie, MI

1:52 AM EST on November 24, 2014 (GMT -0500)
RAWS SILVER CREEK MI US | Change Station
CLOSE
Current Station
Personal Weather Station
Location: National City, MI
Elevation: 704 ft
Nearby Weather Stations

Elev 704 ft 44.38 °N, 83.60 °W | Updated 50 minutes ago

Rain
Rain
45 °F
Feels Like 45 °F
N
0
Wind Variable Wind from North
Gusts 0.0 mph

Today
High -- | Low -- °F
--% Chance of Precip.
Yesterday
High -- | Low -- °F
Precip. -- in
7:42 AM 4:59 PM
Waxing Crescent, 4% visible
Pressure 29.14 in
Visibility 4.0 miles
Clouds Overcast 400 ft
Windchill 45 °F
Dew Point 45 °F
Humidity 100%
Rainfall 0.94 in
Snow Depth Not available.
UV 0 out of 12
Pollen .10 out of 12
Air Quality Not available.
Flu Activity Not available.
METAR KOSC 240633Z AUTO 12011G20KT 4SM RA OVC004 07/07 A2914 RMK AO2 P0013 T00720071

More Conditions Fewer Conditions

Pressure 29.14 in
Visibility 4.0 miles
Clouds Overcast 400 ft
Windchill 45 °F
Dew Point 45 °F
Humidity 100%
Rainfall 0.94 in
Snow Depth Not available.
UV 0 out of 12
Pollen .10 out of 12
Air Quality Not available.
Flu Activity Not available.
METAR KOSC 240633Z AUTO 12011G20KT 4SM RA OVC004 07/07 A2914 RMK AO2 P0013 T00720071

More Conditions Fewer Conditions

Nowcast | as of 1:00 am EST on November 24, 2014

At 2 am...areas of fog. Rain. Temperature 44. Southeast winds 15 mph. At 4 am...areas of fog. Rain. Temperature 44. Southeast winds 15 mph. At 6 am...areas of fog. Rain. Temperature 45. South winds 13 mph. At 8 am...periods of rain. Temperature 46. South winds 13 mph.

×

10-Day Weather Forecast

Almanac

Astronomy

Nov. 24, 2014 Rise Set
Actual Time
Civil Twilight
Nautical Twilight
Astronomical Twilight
Moon
Length of Visible Light
Length of Day
Tomorrow will be .
, % of the Moon is Illuminated

Today's Extremes

State Highs State Lows

Community

WunderPhotos

Upload Photos

1,773,294 photos uploaded!

WunderBlogs® & News

Nearby

Air Quality

  Air Quality AQ Index Pollutant
Not available.

Snow Depth

Station Depth Elevation

Earthquake Activity

City Distance Mag. Time & Date
Minimum magnitude displayed is 2.5.

Coastal Water Temperatures

Place Temperature

Nearby Weather Stations